createdAt,value
2023-05-12T00:00:22.004Z,97069.94
2023-05-12T00:03:12.782Z,97077.10
2023-05-12T00:05:43.455Z,97080.90
2023-05-12T00:08:13.705Z,97080.54
2023-05-12T00:10:44.005Z,97078.75
2023-05-12T00:13:15.090Z,97072.30
2023-05-12T00:15:45.943Z,97069.22
2023-05-12T00:18:16.342Z,97069.77
2023-05-12T00:20:46.677Z,97070.52
2023-05-12T00:23:17.407Z,97070.64
2023-05-12T00:25:48.138Z,97073.09
2023-05-12T00:28:19.417Z,97079.45
2023-05-12T00:30:50.020Z,97081.82
2023-05-12T00:33:20.164Z,97086.20
2023-05-12T00:35:50.668Z,97091.55
2023-05-12T00:38:20.934Z,97090.67
2023-05-12T00:40:51.277Z,97088.23
2023-05-12T00:43:21.360Z,97085.80
2023-05-12T00:45:51.751Z,97084.86
2023-05-12T00:48:22.399Z,97086.13
2023-05-12T00:50:52.872Z,97093.96
2023-05-12T00:53:23.358Z,97101.85
2023-05-12T00:55:54.230Z,97107.18
2023-05-12T00:58:24.518Z,97113.37
2023-05-12T01:00:55.329Z,97110.90
2023-05-12T01:03:26.034Z,97107.42
2023-05-12T01:05:59.535Z,97107.27
2023-05-12T01:08:30.317Z,97111.23
2023-05-12T01:11:00.637Z,97110.73
2023-05-12T01:13:31.591Z,97108.37
2023-05-12T01:16:04.184Z,97114.25
2023-05-12T01:18:35.827Z,97112.27
2023-05-12T01:21:06.890Z,97116.08
2023-05-12T01:23:41.026Z,97113.29
2023-05-12T01:26:11.769Z,97112.59
2023-05-12T01:28:42.905Z,97110.25
2023-05-12T01:31:13.421Z,97100.36
2023-05-12T01:33:43.871Z,97099.42
2023-05-12T01:36:14.153Z,97100.97
2023-05-12T01:38:44.733Z,97103.56
2023-05-12T01:41:15.092Z,97105.34
2023-05-12T01:43:45.954Z,97096.04
2023-05-12T01:46:16.801Z,97098.05
2023-05-12T01:48:47.796Z,97105.11
2023-05-12T01:51:18.907Z,97111.15
2023-05-12T01:53:49.315Z,97109.62
2023-05-12T01:56:21.538Z,97108.98
2023-05-12T01:58:51.970Z,97107.77
2023-05-12T02:01:24.837Z,97111.16
2023-05-12T02:03:56.149Z,97114.83
2023-05-12T02:06:26.809Z,97113.11
2023-05-12T02:08:57.982Z,97110.11
2023-05-12T02:11:30.693Z,97106.59
2023-05-12T02:14:01.271Z,97103.59
2023-05-12T02:16:36.588Z,97105.91
2023-05-12T02:19:08.452Z,97110.92
2023-05-12T02:21:39.630Z,97122.17
2023-05-12T02:24:14.224Z,97128.35
2023-05-12T02:26:45.187Z,97136.35
2023-05-12T02:29:15.745Z,97146.45
2023-05-12T02:31:46.535Z,97152.54
2023-05-12T02:34:17.490Z,97157.52
2023-05-12T02:36:47.836Z,97162.33
2023-05-12T02:39:18.238Z,97160.25
2023-05-12T02:41:49.252Z,97162.02
2023-05-12T02:44:22.344Z,97161.32
2023-05-12T02:46:53.771Z,97163.99
2023-05-12T02:49:24.751Z,97162.46
2023-05-12T02:51:55.567Z,97161.01
2023-05-12T02:54:26.370Z,97156.92
2023-05-12T02:56:58.620Z,97159.27
2023-05-12T02:59:30.307Z,97161.20
2023-05-12T03:02:01.290Z,97165.04
2023-05-12T03:04:33.155Z,97161.77
2023-05-12T03:07:03.749Z,97161.03
2023-05-12T03:09:34.198Z,97160.25
2023-05-12T03:12:05.239Z,97159.08
2023-05-12T03:14:35.473Z,97160.58
2023-05-12T03:17:06.907Z,97156.25
2023-05-12T03:19:37.470Z,97151.30
2023-05-12T03:22:07.958Z,97149.64
2023-05-12T03:24:38.067Z,97145.73
2023-05-12T03:27:09.757Z,97137.08
2023-05-12T03:29:40.394Z,97129.84
2023-05-12T03:32:11.120Z,97125.76
2023-05-12T03:34:41.733Z,97123.42
2023-05-12T03:37:12.420Z,97129.04
2023-05-12T03:39:43.357Z,97135.63
2023-05-12T03:42:15.918Z,97144.20
2023-05-12T03:44:46.409Z,97151.58
2023-05-12T03:47:16.703Z,97155.77
2023-05-12T03:49:47.212Z,97155.49
2023-05-12T03:52:17.628Z,97157.66
2023-05-12T03:54:47.945Z,97160.20
2023-05-12T03:57:18.333Z,97163.86
2023-05-12T03:59:48.800Z,97165.73
2023-05-12T04:02:19.112Z,97165.76
2023-05-12T04:04:49.833Z,97168.63
2023-05-12T04:07:20.523Z,97172.70
2023-05-12T04:09:52.032Z,97173.31
2023-05-12T04:12:22.440Z,97172.44
2023-05-12T04:14:53.504Z,97167.61
2023-05-12T04:17:27.099Z,97167.50
2023-05-12T04:19:58.077Z,97168.56
2023-05-12T04:22:28.440Z,97167.97
2023-05-12T04:24:59.497Z,97173.73
2023-05-12T04:27:29.991Z,97174.42
2023-05-12T04:30:00.450Z,97166.61
2023-05-12T04:32:31.560Z,97167.67
2023-05-12T04:35:02.174Z,97164.41
2023-05-12T04:37:32.495Z,97165.96
2023-05-12T04:40:04.420Z,97165.63
2023-05-12T04:42:34.886Z,97166.28
2023-05-12T04:45:06.988Z,97173.89
2023-05-12T04:47:37.396Z,97178.71
2023-05-12T04:50:10.834Z,97180.45
2023-05-12T04:52:41.628Z,97181.55
2023-05-12T04:55:15.805Z,97180.55
2023-05-12T04:57:49.291Z,97179.13
2023-05-12T05:00:22.323Z,97178.61
2023-05-12T05:02:53.038Z,97175.91
2023-05-12T05:05:23.664Z,97177.00
2023-05-12T05:07:54.059Z,97180.77
2023-05-12T05:10:25.284Z,97183.05
2023-05-12T05:12:55.827Z,97184.84
2023-05-12T05:15:26.706Z,97188.83
2023-05-12T05:17:57.533Z,97191.32
2023-05-12T05:20:29.322Z,97190.80
2023-05-12T05:23:02.180Z,97190.44
2023-05-12T05:25:32.889Z,97196.91
2023-05-12T05:28:03.099Z,97199.98
2023-05-12T05:30:33.594Z,97197.12
2023-05-12T05:33:04.242Z,97193.23
2023-05-12T05:35:34.523Z,97189.65
2023-05-12T05:38:06.052Z,97181.55
2023-05-12T05:40:49.291Z,97185.36
2023-05-12T05:43:22.300Z,97195.23
2023-05-12T05:45:55.579Z,97199.32
2023-05-12T05:48:27.791Z,97197.34
2023-05-12T05:50:58.173Z,97203.48
2023-05-12T05:53:29.145Z,97203.05
2023-05-12T05:55:59.617Z,97201.46
2023-05-12T05:58:31.024Z,97197.09
2023-05-12T06:01:10.008Z,97203.39
2023-05-12T06:03:40.435Z,97212.48
2023-05-12T06:06:10.958Z,97217.30
2023-05-12T06:08:43.124Z,97218.84
2023-05-12T06:11:15.902Z,97212.94
2023-05-12T06:13:47.740Z,97209.13
2023-05-12T06:16:18.721Z,97207.31
2023-05-12T06:18:49.856Z,97207.20
2023-05-12T06:21:20.363Z,97204.77
2023-05-12T06:23:51.575Z,97203.60
2023-05-12T06:26:23.610Z,97206.48
2023-05-12T06:28:54.040Z,97203.39
2023-05-12T06:31:24.702Z,97206.86
2023-05-12T06:33:55.704Z,97206.63
2023-05-12T06:36:26.268Z,97209.47
2023-05-12T06:38:59.296Z,97202.87
2023-05-12T06:41:29.872Z,97199.56
2023-05-12T06:44:02.143Z,97200.67
2023-05-12T06:46:33.072Z,97206.90
2023-05-12T06:49:07.116Z,97206.62
2023-05-12T06:51:37.925Z,97212.01
2023-05-12T06:54:08.960Z,97212.96
2023-05-12T06:56:41.106Z,97214.45
2023-05-12T06:59:12.328Z,97219.27
2023-05-12T07:01:43.388Z,97220.02
2023-05-12T07:04:14.067Z,97218.43
2023-05-12T07:06:45.037Z,97215.29
2023-05-12T07:09:15.205Z,97210.11
2023-05-12T07:11:49.858Z,97208.59
2023-05-12T07:14:20.594Z,97206.98
2023-05-12T07:16:51.471Z,97209.08
2023-05-12T07:19:22.246Z,97205.83
2023-05-12T07:21:53.586Z,97199.09
2023-05-12T07:24:23.928Z,97193.83
2023-05-12T07:26:54.498Z,97193.39
2023-05-12T07:29:29.834Z,97197.34
2023-05-12T07:32:00.183Z,97202.89
2023-05-12T07:34:30.533Z,97201.94
2023-05-12T07:37:03.829Z,97203.67
2023-05-12T07:39:35.325Z,97204.98
2023-05-12T07:42:07.314Z,97209.00
2023-05-12T07:44:38.911Z,97214.41
2023-05-12T07:47:09.497Z,97213.85
2023-05-12T07:49:39.941Z,97214.15
2023-05-12T07:52:10.471Z,97210.40
2023-05-12T07:54:41.280Z,97211.30
2023-05-12T07:57:12.071Z,97206.31
2023-05-12T07:59:42.756Z,97204.95
2023-05-12T08:02:13.470Z,97198.12
2023-05-12T08:04:44.571Z,97198.35
2023-05-12T08:07:15.450Z,97192.44
2023-05-12T08:09:46.119Z,97191.32
2023-05-12T08:12:16.811Z,97187.63
2023-05-12T08:14:47.146Z,97185.58
2023-05-12T08:17:18.596Z,97188.69
2023-05-12T08:19:49.208Z,97186.59
2023-05-12T08:22:21.405Z,97185.31
2023-05-12T08:24:53.395Z,97179.73
2023-05-12T08:27:27.616Z,97173.33
2023-05-12T08:30:01.419Z,97175.34
2023-05-12T08:32:41.016Z,97177.72
2023-05-12T08:35:16.191Z,97176.59
2023-05-12T08:37:50.589Z,97182.36
2023-05-12T08:40:26.273Z,97185.91
2023-05-12T08:43:06.490Z,97175.75
2023-05-12T08:45:39.794Z,97172.69
2023-05-12T08:48:11.672Z,97174.70
2023-05-12T08:50:44.703Z,97193.95
2023-05-12T08:53:23.813Z,97198.64
2023-05-12T08:59:42.276Z,97157.85
2023-05-12T09:02:53.991Z,97164.15
2023-05-12T09:05:34.896Z,97165.39
2023-05-12T09:08:13.970Z,97159.98
2023-05-12T09:10:52.127Z,97163.21
2023-05-12T09:13:49.782Z,97171.27
2023-05-12T09:16:25.165Z,97178.13
2023-05-12T09:18:57.253Z,97183.70
2023-05-12T09:21:32.048Z,97181.98
2023-05-12T09:24:10.366Z,97179.34
2023-05-12T09:26:52.891Z,97176.92
2023-05-12T09:29:37.506Z,97172.19
2023-05-12T09:32:40.613Z,97176.77
2023-05-12T09:35:24.112Z,97187.90
2023-05-12T09:38:01.682Z,97191.27
2023-05-12T09:40:40.409Z,97201.01
2023-05-12T09:43:22.892Z,97207.36
2023-05-12T09:45:57.643Z,97197.42
2023-05-12T09:48:29.033Z,97173.80
2023-05-12T09:51:03.191Z,97154.38
2023-05-12T09:53:34.658Z,97141.34
2023-05-12T09:56:12.776Z,97146.32
2023-05-12T09:58:51.667Z,97150.61
2023-05-12T10:01:24.234Z,97157.38
2023-05-12T10:03:59.343Z,97158.64
2023-05-12T10:06:40.967Z,97164.37
2023-05-12T10:09:47.894Z,97163.75
2023-05-12T10:12:19.337Z,97158.82
2023-05-12T10:14:51.444Z,97153.08
2023-05-12T10:17:23.735Z,97143.79
2023-05-12T10:19:54.795Z,97135.88
2023-05-12T10:22:33.828Z,97127.93
2023-05-12T10:25:12.050Z,97130.63
2023-05-12T10:27:48.461Z,97134.99
2023-05-12T10:30:20.466Z,97136.31
2023-05-12T10:32:53.646Z,97129.85
2023-05-12T10:35:49.755Z,97127.49
2023-05-12T10:38:23.508Z,97117.94
2023-05-12T10:41:04.690Z,97111.29
2023-05-12T10:43:42.834Z,97109.66
2023-05-12T10:46:23.325Z,97105.85
2023-05-12T10:49:00.537Z,97113.94
2023-05-12T10:51:35.979Z,97121.23
2023-05-12T10:54:09.243Z,97124.05
2023-05-12T10:56:45.696Z,97122.81
2023-05-12T10:59:30.811Z,97122.08
2023-05-12T11:02:05.438Z,97120.17
2023-05-12T11:05:01.102Z,97124.85
2023-05-12T11:07:37.400Z,97130.38
2023-05-12T11:10:13.500Z,97130.61
2023-05-12T11:12:46.661Z,97128.53
2023-05-12T11:15:18.871Z,97135.96
2023-05-12T11:17:54.849Z,97140.42
2023-05-12T11:20:27.573Z,97143.59
2023-05-12T11:23:01.672Z,97141.69
2023-05-12T11:25:35.539Z,97145.56
2023-05-12T11:28:07.453Z,97145.52
2023-05-12T11:31:01.016Z,97149.50
2023-05-12T11:33:38.101Z,97146.06
2023-05-12T11:36:12.685Z,97144.81
2023-05-12T11:38:52.732Z,97146.20
2023-05-12T11:41:27.776Z,97140.23
2023-05-12T11:43:58.526Z,97136.02
2023-05-12T11:46:32.236Z,97133.17
2023-05-12T11:49:04.013Z,97127.60
2023-05-12T11:51:34.668Z,97126.13
2023-05-12T11:54:05.517Z,97128.95
2023-05-12T11:56:36.215Z,97130.88
2023-05-12T11:59:07.310Z,97124.83
2023-05-12T12:01:47.537Z,97125.25
2023-05-12T12:04:19.758Z,97133.28
2023-05-12T12:06:54.017Z,97137.74
2023-05-12T12:09:32.399Z,97128.67
2023-05-12T12:12:08.143Z,97120.88
2023-05-12T12:14:43.040Z,97123.61
2023-05-12T12:17:15.059Z,97123.92
2023-05-12T12:19:49.448Z,97121.15
2023-05-12T12:22:21.945Z,97117.16
2023-05-12T12:24:52.215Z,97114.73
2023-05-12T12:27:22.589Z,97110.84
2023-05-12T12:29:55.673Z,97106.45
2023-05-12T12:32:31.682Z,97101.63
2023-05-12T12:35:06.258Z,97095.08
2023-05-12T12:37:37.392Z,97094.96
2023-05-12T12:40:09.994Z,97105.55
2023-05-12T12:42:41.058Z,97111.92
2023-05-12T12:45:13.438Z,97113.33
2023-05-12T12:47:46.156Z,97112.23
2023-05-12T12:50:16.960Z,97111.80
2023-05-12T12:52:49.142Z,97120.15
2023-05-12T12:55:20.772Z,97137.36
2023-05-12T12:57:51.407Z,97154.13
2023-05-12T13:00:23.963Z,97169.73
2023-05-12T13:02:54.648Z,97181.77
2023-05-12T13:05:28.029Z,97190.36
2023-05-12T13:07:58.306Z,97188.17
2023-05-12T13:10:33.814Z,97184.80
2023-05-12T13:13:05.089Z,97178.89
2023-05-12T13:15:35.764Z,97198.05
2023-05-12T13:18:08.789Z,97199.87
2023-05-12T13:20:39.295Z,97187.02
2023-05-12T13:23:10.644Z,97180.58
2023-05-12T13:25:44.734Z,97171.50
2023-05-12T13:28:20.438Z,97169.11
2023-05-12T13:31:08.792Z,97148.33
2023-05-12T13:33:45.157Z,97107.98
2023-05-12T13:36:22.155Z,97064.59
2023-05-12T13:39:06.475Z,97027.92
2023-05-12T13:41:45.900Z,97017.83
2023-05-12T13:44:24.731Z,97049.21
2023-05-12T13:46:56.485Z,97077.92
2023-05-12T13:49:29.966Z,97086.22
2023-05-12T13:52:04.319Z,97088.98
2023-05-12T13:54:38.309Z,97092.98
2023-05-12T13:57:13.039Z,97100.19
2023-05-12T13:59:54.290Z,97100.00
2023-05-12T14:02:26.776Z,97094.81
2023-05-12T14:05:02.039Z,97091.00
2023-05-12T14:07:32.747Z,97087.25
2023-05-12T14:10:07.151Z,97085.72
2023-05-12T14:12:41.069Z,97083.09
2023-05-12T14:15:26.570Z,97083.42
2023-05-12T14:18:07.395Z,97071.65
2023-05-12T14:21:03.632Z,97056.31
2023-05-12T14:23:36.387Z,97031.79
2023-05-12T14:26:12.529Z,97025.48
2023-05-12T14:28:45.904Z,97033.80
2023-05-12T14:31:18.981Z,97041.23
2023-05-12T14:33:50.931Z,97045.73
2023-05-12T14:36:54.088Z,97044.35
2023-05-12T14:39:48.333Z,97054.21
2023-05-12T14:42:29.451Z,97054.29
2023-05-12T14:45:34.366Z,97047.00
2023-05-12T14:48:15.087Z,97045.23
2023-05-12T14:50:56.797Z,97046.58
2023-05-12T14:53:30.264Z,97050.45
2023-05-12T14:56:05.983Z,97057.75
2023-05-12T14:58:36.780Z,97063.66
2023-05-12T15:01:09.340Z,97062.62
2023-05-12T15:03:43.112Z,97064.50
2023-05-12T15:06:16.548Z,97064.96
2023-05-12T15:08:47.449Z,97063.63
2023-05-12T15:11:22.512Z,97067.31
2023-05-12T15:13:55.996Z,97068.32
2023-05-12T15:19:15.084Z,97072.35
2023-05-12T15:22:00.465Z,97071.30
2023-05-12T15:24:34.864Z,97069.20
2023-05-12T15:27:07.816Z,97068.85
2023-05-12T15:29:41.567Z,97069.59
2023-05-12T15:32:14.496Z,97063.23
2023-05-12T15:34:45.051Z,97060.88
2023-05-12T15:37:15.830Z,97061.70
2023-05-12T15:39:53.416Z,97063.60
2023-05-12T15:42:32.358Z,97059.08
2023-05-12T15:45:10.782Z,97060.32
2023-05-12T15:47:41.430Z,97054.23
2023-05-12T15:50:20.359Z,97055.92
2023-05-12T15:52:54.474Z,97063.65
2023-05-12T15:55:30.321Z,97063.27
2023-05-12T15:58:01.305Z,97067.31
2023-05-12T16:00:31.861Z,97068.17
2023-05-12T16:03:02.959Z,97070.77
2023-05-12T16:05:37.483Z,97068.16
2023-05-12T16:08:08.247Z,97068.06
2023-05-12T16:10:38.610Z,97071.39
2023-05-12T16:13:09.635Z,97070.36
2023-05-12T16:15:40.085Z,97070.83
2023-05-12T16:18:11.514Z,97077.21
2023-05-12T16:20:43.249Z,97076.27
2023-05-12T16:23:15.443Z,97076.37
2023-05-12T16:25:46.523Z,97076.95
2023-05-12T16:28:17.158Z,97074.09
2023-05-12T16:30:48.899Z,97072.70
2023-05-12T16:33:19.510Z,97073.38
2023-05-12T16:35:50.498Z,97074.06
2023-05-12T16:38:20.911Z,97075.35
2023-05-12T16:40:51.859Z,97076.30
2023-05-12T16:43:22.856Z,97076.10
2023-05-12T16:46:01.606Z,97074.27
2023-05-12T16:48:34.870Z,97075.32
2023-05-12T16:51:07.958Z,97075.61
2023-05-12T16:53:39.272Z,97079.91
2023-05-12T16:56:10.046Z,97080.35
2023-05-12T16:58:42.234Z,97080.08
2023-05-12T17:01:12.820Z,97070.54
2023-05-12T17:03:43.742Z,97071.20
2023-05-12T17:06:14.907Z,97083.70
2023-05-12T17:08:45.435Z,97084.89
2023-05-12T17:11:21.777Z,97082.89
2023-05-12T17:13:53.628Z,97084.54
2023-05-12T17:16:24.282Z,97091.88
2023-05-12T17:21:29.606Z,97109.58
2023-05-12T17:24:00.581Z,97112.09
2023-05-12T17:26:31.138Z,97116.48
2023-05-12T17:29:02.264Z,97123.84
2023-05-12T17:31:34.158Z,97128.25
2023-05-12T17:34:04.642Z,97125.13
2023-05-12T17:36:40.241Z,97115.84
2023-05-12T17:39:13.903Z,97108.91
2023-05-12T17:41:44.976Z,97105.10
2023-05-12T17:44:15.381Z,97108.60
2023-05-12T17:46:49.298Z,97114.95
2023-05-12T17:49:25.162Z,97118.68
2023-05-12T17:51:58.924Z,97120.43
2023-05-12T17:54:36.065Z,97117.11
2023-05-12T17:57:07.421Z,97111.06
2023-05-12T17:59:40.037Z,97112.11
2023-05-12T18:02:13.779Z,97107.39
2023-05-12T18:04:44.779Z,97105.26
2023-05-12T18:07:15.869Z,97099.33
2023-05-12T18:09:49.075Z,97092.75
2023-05-12T18:12:22.166Z,97093.14
2023-05-12T18:14:55.348Z,97090.35
2023-05-12T18:17:27.813Z,97082.23
2023-05-12T18:20:02.176Z,97077.50
2023-05-12T18:22:34.165Z,97077.56
2023-05-12T18:25:04.791Z,97079.41
2023-05-12T18:27:38.779Z,97080.20
2023-05-12T18:30:11.598Z,97084.44
2023-05-12T18:32:47.455Z,97082.70
2023-05-12T18:35:26.790Z,97081.93
2023-05-12T18:38:00.657Z,97082.95
2023-05-12T18:40:31.705Z,97083.60
2023-05-12T18:43:04.053Z,97081.38
2023-05-12T18:45:35.894Z,97082.25
2023-05-12T18:48:10.794Z,97081.80
2023-05-12T18:50:41.659Z,97078.83
2023-05-12T18:53:12.188Z,97081.30
2023-05-12T18:55:43.946Z,97082.88
2023-05-12T18:58:20.311Z,97087.79
2023-05-12T19:00:50.839Z,97088.27
2023-05-12T19:03:21.647Z,97087.92
2023-05-12T19:05:52.540Z,97082.14
2023-05-12T19:08:24.824Z,97086.00
2023-05-12T19:11:01.661Z,97084.89
2023-05-12T19:13:33.397Z,97084.49
2023-05-12T19:16:04.128Z,97081.45
2023-05-12T19:18:34.765Z,97074.91
2023-05-12T19:21:09.335Z,97068.86
2023-05-12T19:23:41.408Z,97067.59
2023-05-12T19:26:15.241Z,97063.38
2023-05-12T19:28:47.669Z,97054.05
2023-05-12T19:31:24.120Z,97045.48
2023-05-12T19:33:56.633Z,97048.42
2023-05-12T19:36:30.144Z,97044.48
2023-05-12T19:39:01.414Z,97041.09
2023-05-12T19:41:41.347Z,97030.61
2023-05-12T19:44:15.477Z,97024.61
2023-05-12T19:47:02.908Z,97017.16
2023-05-12T19:49:42.147Z,97014.74
2023-05-12T19:52:30.211Z,97002.18
2023-05-12T19:55:15.662Z,96998.06
2023-05-12T19:57:54.422Z,97000.90
2023-05-12T20:00:29.186Z,96997.65
2023-05-12T20:03:06.304Z,96997.30
2023-05-12T20:05:40.009Z,96995.91
2023-05-12T20:08:13.568Z,96993.84
2023-05-12T20:10:47.773Z,96997.70
2023-05-12T20:13:24.670Z,97010.05
2023-05-12T20:15:56.704Z,97019.21
2023-05-12T20:18:31.304Z,97022.50
2023-05-12T20:21:03.641Z,97025.40
2023-05-12T20:23:42.685Z,97022.23
2023-05-12T20:26:18.505Z,97018.21
2023-05-12T20:28:54.476Z,97020.89
2023-05-12T20:31:26.137Z,97023.23
2023-05-12T20:34:02.856Z,97021.15
2023-05-12T20:36:33.432Z,97026.00
2023-05-12T20:39:09.550Z,97025.65
2023-05-12T20:41:42.891Z,97025.75
2023-05-12T20:44:14.517Z,97021.48
2023-05-12T20:46:46.800Z,97028.54
2023-05-12T20:49:21.192Z,97024.46
2023-05-12T20:51:51.727Z,97022.77
2023-05-12T20:54:22.444Z,97019.02
2023-05-12T20:56:52.750Z,97013.98
2023-05-12T20:59:24.520Z,97013.98
2023-05-12T21:01:56.450Z,97017.98
2023-05-12T21:04:32.067Z,97021.95
2023-05-12T21:07:02.991Z,97021.08
2023-05-12T21:09:35.228Z,97021.23
2023-05-12T21:12:07.348Z,97023.36
2023-05-12T21:14:41.367Z,97022.42
2023-05-12T21:17:16.414Z,97023.38
2023-05-12T21:19:47.005Z,97015.83
2023-05-12T21:22:20.313Z,97013.38
2023-05-12T21:24:52.196Z,97009.23
2023-05-12T21:27:23.206Z,97007.13
2023-05-12T21:30:00.899Z,97002.70
2023-05-12T21:35:23.670Z,96991.06
2023-05-12T21:37:56.186Z,96985.17
2023-05-12T21:40:27.477Z,96982.43
2023-05-12T21:42:58.790Z,96980.20
2023-05-12T21:45:29.364Z,96983.00
2023-05-12T21:47:59.953Z,96983.64
2023-05-12T21:50:30.705Z,96981.02
2023-05-12T21:53:03.535Z,96978.26
2023-05-12T21:55:34.603Z,96979.80
2023-05-12T21:58:05.836Z,96985.17
2023-05-12T22:00:36.949Z,96982.71
2023-05-12T22:03:08.837Z,96980.89
2023-05-12T22:05:42.818Z,96980.79
2023-05-12T22:08:13.832Z,96976.21
2023-05-12T22:10:48.631Z,96969.15
2023-05-12T22:13:21.829Z,96967.08
2023-05-12T22:15:55.392Z,96964.25
2023-05-12T22:18:27.361Z,96957.98
2023-05-12T22:20:59.038Z,96959.20
2023-05-12T22:23:35.199Z,96962.04
2023-05-12T22:26:07.517Z,96963.96
2023-05-12T22:28:37.978Z,96955.46
2023-05-12T22:31:10.927Z,96954.38
2023-05-12T22:33:51.593Z,96955.79
2023-05-12T22:36:21.847Z,96958.30
2023-05-12T22:38:57.998Z,96957.52
2023-05-12T22:41:30.928Z,96954.05
2023-05-12T22:44:01.480Z,96949.52
2023-05-12T22:46:31.970Z,96945.52
2023-05-12T22:49:02.137Z,96937.55
2023-05-12T22:51:32.445Z,96930.90
2023-05-12T22:54:02.808Z,96923.14
2023-05-12T22:56:33.049Z,96929.66
2023-05-12T22:59:03.475Z,96937.90
2023-05-12T23:01:34.372Z,96940.98
2023-05-12T23:04:05.172Z,96937.08
2023-05-12T23:06:37.351Z,96933.83
2023-05-12T23:09:09.600Z,96934.62
2023-05-12T23:11:40.500Z,96929.54
2023-05-12T23:14:11.770Z,96924.65
2023-05-12T23:16:42.030Z,96928.89
2023-05-12T23:19:12.655Z,96924.55
2023-05-12T23:21:43.363Z,96929.19
2023-05-12T23:24:13.849Z,96924.63
2023-05-12T23:26:44.246Z,96924.62
2023-05-12T23:29:15.209Z,96918.64
2023-05-12T23:31:45.812Z,96917.98
2023-05-12T23:34:16.296Z,96927.36
2023-05-12T23:36:46.466Z,96933.26
2023-05-12T23:39:17.081Z,96928.58
2023-05-12T23:41:47.421Z,96937.30
2023-05-12T23:44:17.984Z,96941.81
2023-05-12T23:46:48.618Z,96943.10
2023-05-12T23:49:18.854Z,96931.39
2023-05-12T23:51:49.281Z,96930.89
2023-05-12T23:54:19.982Z,96930.61
2023-05-12T23:56:50.908Z,96926.16
2023-05-12T23:59:21.225Z,96927.60
